DAL746 KIND-CYYZ
Flight info
| Callsign | DAL746 |
|---|---|
| Flight time | N/A |
| Altitude | 37000 |
| Route | MEARZ7 MZZ DCT FWA DCT CRL DCT QWERI NUBER6 |
| Aircraft | A20N/M-SDE2E3FGHIRWXY/LB1 |
Departure
| Time | 2026-05-07 01:09 |
|---|---|
| Airport | Indianapolis International Airport (KIND) |
Arrival
| Time | N/A |
|---|---|
| Airport | Toronto Pearson International Airport (CYYZ) |
| Time | Latitude | Longitude | Altitude | Speed | Heading |
|---|---|---|---|---|---|
| 2026-05-07 00:38 | 39.71849 | -86.29700 | 791 ft | 0 kts | 147° |
| 2026-05-07 00:57 | 39.71851 | -86.29701 | 789 ft | 1 kts | 147° |
| 2026-05-07 00:57 | 39.71875 | -86.29721 | 788 ft | 4 kts | 147° |
| 2026-05-07 00:58 | 39.71887 | -86.29731 | 788 ft | 0 kts | 147° |
| 2026-05-07 00:58 | 39.71890 | -86.29734 | 788 ft | 4 kts | 145° |
| 2026-05-07 00:59 | 39.71918 | -86.29771 | 788 ft | 1 kts | 118° |
| 2026-05-07 00:59 | 39.71922 | -86.29780 | 788 ft | 1 kts | 108° |
| 2026-05-07 00:59 | 39.71924 | -86.29792 | 788 ft | 2 kts | 95° |
| 2026-05-07 01:00 | 39.71922 | -86.29810 | 788 ft | 2 kts | 50° |
| 2026-05-07 01:00 | 39.71918 | -86.29817 | 788 ft | 0 kts | 31° |
| 2026-05-07 01:02 | 39.71933 | -86.29810 | 773 ft | 5 kts | 20° |
| 2026-05-07 01:02 | 39.71987 | -86.29769 | 788 ft | 12 kts | 34° |
| 2026-05-07 01:02 | 39.72061 | -86.29692 | 789 ft | 15 kts | 40° |
| 2026-05-07 01:02 | 39.72152 | -86.29612 | 787 ft | 17 kts | 3° |
| 2026-05-07 01:03 | 39.72262 | -86.29682 | 783 ft | 19 kts | 359° |
| 2026-05-07 01:03 | 39.72367 | -86.29583 | 783 ft | 20 kts | 45° |
| 2026-05-07 01:03 | 39.72473 | -86.29447 | 781 ft | 23 kts | 44° |
| 2026-05-07 01:03 | 39.72587 | -86.29300 | 783 ft | 16 kts | 45° |
| 2026-05-07 01:04 | 39.72630 | -86.29245 | 783 ft | 0 kts | 45° |
| 2026-05-07 01:06 | 39.72631 | -86.29244 | 783 ft | 1 kts | 45° |
| 2026-05-07 01:06 | 39.72633 | -86.29242 | 783 ft | 0 kts | 45° |
| 2026-05-07 01:06 | 39.72641 | -86.29231 | 783 ft | 4 kts | 44° |
| 2026-05-07 01:06 | 39.72671 | -86.29193 | 783 ft | 8 kts | 40° |
| 2026-05-07 01:07 | 39.72723 | -86.29183 | 784 ft | 8 kts | 333° |
| 2026-05-07 01:07 | 39.72746 | -86.29205 | 784 ft | 0 kts | 322° |
| 2026-05-07 01:07 | 39.72750 | -86.29210 | 784 ft | 2 kts | 318° |
| 2026-05-07 01:07 | 39.72772 | -86.29241 | 784 ft | 7 kts | 314° |
| 2026-05-07 01:08 | 39.72787 | -86.29320 | 782 ft | 13 kts | 257° |
| 2026-05-07 01:08 | 39.72685 | -86.29474 | 784 ft | 49 kts | 225° |
| 2026-05-07 01:08 | 39.72276 | -86.29997 | 789 ft | 112 kts | 224° |
| 2026-05-07 01:08 | 39.71590 | -86.30862 | 813 ft | 157 kts | 225° |
| 2026-05-07 01:09 | 39.70798 | -86.31826 | 1396 ft | 156 kts | 225° |
| 2026-05-07 01:09 | 39.69969 | -86.32797 | 1957 ft | 165 kts | 225° |
| 2026-05-07 01:09 | 39.69128 | -86.33839 | 2544 ft | 170 kts | 227° |
| 2026-05-07 01:09 | 39.68275 | -86.34930 | 3120 ft | 174 kts | 227° |
| 2026-05-07 01:10 | 39.67441 | -86.35996 | 3621 ft | 163 kts | 226° |
| 2026-05-07 01:10 | 39.66566 | -86.37034 | 3736 ft | 184 kts | 225° |
| 2026-05-07 01:10 | 39.65563 | -86.38220 | 4118 ft | 205 kts | 225° |
| 2026-05-07 01:10 | 39.64464 | -86.39527 | 4605 ft | 224 kts | 225° |
| 2026-05-07 01:11 | 39.63262 | -86.40962 | 5067 ft | 245 kts | 225° |
| 2026-05-07 01:11 | 39.61945 | -86.42535 | 5678 ft | 260 kts | 225° |
| 2026-05-07 01:11 | 39.60620 | -86.44114 | 6595 ft | 261 kts | 229° |
| 2026-05-07 01:11 | 39.59684 | -86.46073 | 7481 ft | 256 kts | 256° |
| 2026-05-07 01:12 | 39.59586 | -86.48341 | 8388 ft | 253 kts | 283° |
| 2026-05-07 01:12 | 39.60347 | -86.50385 | 9313 ft | 257 kts | 308° |
| 2026-05-07 01:12 | 39.61814 | -86.51750 | 10168 ft | 269 kts | 333° |
| 2026-05-07 01:12 | 39.63747 | -86.52185 | 10553 ft | 303 kts | 356° |
| 2026-05-07 01:13 | 39.65915 | -86.51535 | 10778 ft | 339 kts | 16° |
| 2026-05-07 01:13 | 39.68096 | -86.50135 | 11214 ft | 358 kts | 22° |
| 2026-05-07 01:13 | 39.70301 | -86.48556 | 11837 ft | 366 kts | 22° |
| 2026-05-07 01:13 | 39.72578 | -86.46998 | 12464 ft | 373 kts | 20° |
| 2026-05-07 01:14 | 39.74157 | -86.45976 | 12805 ft | 378 kts | 18° |
| 2026-05-07 01:14 | 39.77297 | -86.44037 | 13083 ft | 375 kts | 17° |
| 2026-05-07 01:14 | 39.78099 | -86.43554 | 13134 ft | 376 kts | 17° |
| 2026-05-07 01:15 | 39.79399 | -86.42778 | 13239 ft | 379 kts | 17° |
| 2026-05-07 01:15 | 39.81818 | -86.41345 | 13902 ft | 384 kts | 16° |
| 2026-05-07 01:15 | 39.84265 | -86.39896 | 14507 ft | 390 kts | 16° |
| 2026-05-07 01:16 | 39.86750 | -86.38424 | 15093 ft | 396 kts | 16° |
| 2026-05-07 01:16 | 39.89275 | -86.36924 | 15674 ft | 402 kts | 15° |
| 2026-05-07 01:16 | 39.91834 | -86.35401 | 16259 ft | 407 kts | 15° |
| 2026-05-07 01:16 | 39.94431 | -86.33853 | 16849 ft | 413 kts | 15° |
| 2026-05-07 01:17 | 39.97059 | -86.32264 | 17404 ft | 422 kts | 18° |
| 2026-05-07 01:17 | 39.99597 | -86.30248 | 18119 ft | 433 kts | 29° |
| 2026-05-07 01:17 | 40.01941 | -86.27669 | 18583 ft | 448 kts | 38° |
| 2026-05-07 01:17 | 40.04192 | -86.24826 | 19065 ft | 453 kts | 38° |
| 2026-05-07 01:18 | 40.06473 | -86.21967 | 19556 ft | 457 kts | 37° |
| 2026-05-07 01:18 | 40.08785 | -86.19076 | 20030 ft | 462 kts | 37° |
| 2026-05-07 01:18 | 40.11122 | -86.16155 | 20455 ft | 469 kts | 37° |
| 2026-05-07 01:18 | 40.13490 | -86.13192 | 20926 ft | 474 kts | 37° |
| 2026-05-07 01:19 | 40.15881 | -86.10193 | 21411 ft | 478 kts | 36° |
| 2026-05-07 01:19 | 40.18295 | -86.07163 | 21880 ft | 483 kts | 36° |
| 2026-05-07 01:19 | 40.20728 | -86.04105 | 22463 ft | 486 kts | 36° |
| 2026-05-07 01:19 | 40.23144 | -86.01065 | 22901 ft | 491 kts | 36° |
| 2026-05-07 01:20 | 40.25618 | -85.97949 | 23367 ft | 496 kts | 36° |
| 2026-05-07 01:20 | 40.28115 | -85.94802 | 23782 ft | 501 kts | 36° |
| 2026-05-07 01:20 | 40.30671 | -85.91576 | 24152 ft | 506 kts | 36° |
| 2026-05-07 01:20 | 40.33180 | -85.88407 | 24521 ft | 510 kts | 35° |
| 2026-05-07 01:21 | 40.35752 | -85.85153 | 24866 ft | 515 kts | 35° |
| 2026-05-07 01:21 | 40.38337 | -85.81880 | 25223 ft | 519 kts | 35° |
| 2026-05-07 01:21 | 40.40943 | -85.78577 | 25685 ft | 522 kts | 36° |
| 2026-05-07 01:21 | 40.43552 | -85.75265 | 26142 ft | 524 kts | 36° |
| 2026-05-07 01:22 | 40.46187 | -85.71920 | 26419 ft | 529 kts | 36° |
| 2026-05-07 01:22 | 40.48849 | -85.68554 | 26730 ft | 531 kts | 33° |
| 2026-05-07 01:22 | 40.51704 | -85.65524 | 27040 ft | 527 kts | 27° |
| 2026-05-07 01:22 | 40.54637 | -85.62594 | 27348 ft | 531 kts | 26° |
| 2026-05-07 01:23 | 40.57574 | -85.59651 | 27653 ft | 535 kts | 26° |
| 2026-05-07 01:23 | 40.60546 | -85.56665 | 27942 ft | 540 kts | 26° |
| 2026-05-07 01:23 | 40.63537 | -85.53656 | 28234 ft | 543 kts | 26° |
| 2026-05-07 01:23 | 40.66551 | -85.50618 | 28517 ft | 547 kts | 26° |
| 2026-05-07 01:24 | 40.69581 | -85.47561 | 28798 ft | 551 kts | 26° |
| 2026-05-07 01:24 | 40.72624 | -85.44507 | 28998 ft | 545 kts | 30° |
| 2026-05-07 01:24 | 40.75637 | -85.41455 | 29243 ft | 548 kts | 27° |
| 2026-05-07 01:24 | 40.78653 | -85.38392 | 29692 ft | 547 kts | 26° |
| 2026-05-07 01:25 | 40.81677 | -85.35322 | 30029 ft | 550 kts | 26° |
| 2026-05-07 01:25 | 40.84714 | -85.32242 | 30320 ft | 552 kts | 26° |
| 2026-05-07 01:25 | 40.87762 | -85.29145 | 30569 ft | 554 kts | 26° |
| 2026-05-07 01:25 | 40.90822 | -85.26033 | 30823 ft | 557 kts | 26° |
| 2026-05-07 01:26 | 40.93901 | -85.22897 | 31074 ft | 559 kts | 26° |
| 2026-05-07 01:26 | 40.96953 | -85.19670 | 31352 ft | 568 kts | 31° |
| 2026-05-07 01:26 | 40.99757 | -85.15906 | 31673 ft | 581 kts | 41° |
| 2026-05-07 01:26 | 41.02317 | -85.11847 | 31994 ft | 582 kts | 41° |
| 2026-05-07 01:27 | 41.04913 | -85.07740 | 32497 ft | 579 kts | 41° |
| 2026-05-07 01:27 | 41.07497 | -85.03657 | 32818 ft | 578 kts | 41° |
| 2026-05-07 01:27 | 41.10087 | -84.99566 | 33011 ft | 581 kts | 41° |
| 2026-05-07 01:27 | 41.12683 | -84.95461 | 33284 ft | 581 kts | 41° |
| 2026-05-07 01:28 | 41.15276 | -84.91349 | 33564 ft | 582 kts | 41° |
| 2026-05-07 01:28 | 41.17876 | -84.87221 | 33813 ft | 582 kts | 41° |
| 2026-05-07 01:28 | 41.20468 | -84.83097 | 34066 ft | 582 kts | 41° |
| 2026-05-07 01:28 | 41.23064 | -84.78962 | 34415 ft | 581 kts | 41° |
| 2026-05-07 01:29 | 41.25628 | -84.74867 | 34946 ft | 572 kts | 42° |
| 2026-05-07 01:29 | 41.28161 | -84.70818 | 35356 ft | 567 kts | 42° |
| 2026-05-07 01:29 | 41.30680 | -84.66794 | 35590 ft | 566 kts | 42° |
| 2026-05-07 01:29 | 41.33204 | -84.62757 | 35743 ft | 567 kts | 42° |
| 2026-05-07 01:30 | 41.35725 | -84.58719 | 35947 ft | 567 kts | 42° |
| 2026-05-07 01:30 | 41.38243 | -84.54678 | 36162 ft | 566 kts | 42° |
| 2026-05-07 01:30 | 41.40753 | -84.50641 | 36396 ft | 565 kts | 42° |
| 2026-05-07 01:30 | 41.43257 | -84.46609 | 36664 ft | 564 kts | 43° |
| 2026-05-07 01:31 | 41.45745 | -84.42597 | 36936 ft | 560 kts | 43° |
| 2026-05-07 01:31 | 41.50687 | -84.34615 | 36998 ft | 557 kts | 43° |
| 2026-05-07 01:32 | 41.55622 | -84.26624 | 36996 ft | 559 kts | 43° |
| 2026-05-07 01:32 | 41.60575 | -84.18582 | 36999 ft | 560 kts | 43° |
| 2026-05-07 01:33 | 41.65509 | -84.10546 | 37001 ft | 556 kts | 44° |
| 2026-05-07 01:33 | 41.70372 | -84.02609 | 36999 ft | 557 kts | 44° |
| 2026-05-07 01:34 | 41.75276 | -83.94583 | 37003 ft | 557 kts | 44° |
| 2026-05-07 01:34 | 41.80179 | -83.86533 | 36984 ft | 559 kts | 44° |
| 2026-05-07 01:35 | 41.85087 | -83.78455 | 36994 ft | 553 kts | 44° |
| 2026-05-07 01:35 | 41.89932 | -83.70457 | 36988 ft | 554 kts | 44° |
| 2026-05-07 01:36 | 41.94792 | -83.62419 | 36988 ft | 555 kts | 44° |
| 2026-05-07 01:36 | 41.99648 | -83.54360 | 36988 ft | 555 kts | 44° |
| 2026-05-07 01:37 | 42.04495 | -83.46285 | 36980 ft | 553 kts | 46° |
| 2026-05-07 01:37 | 42.09017 | -83.37890 | 36999 ft | 555 kts | 48° |
| 2026-05-07 01:38 | 42.13558 | -83.29484 | 36992 ft | 555 kts | 48° |
| 2026-05-07 01:38 | 42.18086 | -83.21053 | 36995 ft | 555 kts | 49° |
| 2026-05-07 01:39 | 42.22594 | -83.12614 | 36990 ft | 550 kts | 49° |
| 2026-05-07 01:39 | 42.27047 | -83.04253 | 36990 ft | 549 kts | 49° |
| 2026-05-07 01:40 | 42.31503 | -82.95867 | 36833 ft | 547 kts | 49° |
| 2026-05-07 01:40 | 42.33685 | -82.91750 | 36365 ft | 546 kts | 49° |
| 2026-05-07 01:40 | 42.35900 | -82.87566 | 35698 ft | 548 kts | 49° |
| 2026-05-07 01:40 | 42.38123 | -82.83364 | 34962 ft | 551 kts | 49° |
| 2026-05-07 01:41 | 42.40356 | -82.79137 | 34329 ft | 551 kts | 49° |
| 2026-05-07 01:41 | 42.42580 | -82.74916 | 33638 ft | 551 kts | 49° |
| 2026-05-07 01:41 | 42.44802 | -82.70694 | 32970 ft | 549 kts | 50° |
| 2026-05-07 01:41 | 42.47011 | -82.66491 | 32349 ft | 546 kts | 50° |
| 2026-05-07 01:42 | 42.49200 | -82.62321 | 31727 ft | 543 kts | 50° |
| 2026-05-07 01:42 | 42.51386 | -82.58151 | 31189 ft | 539 kts | 50° |
| 2026-05-07 01:42 | 42.53545 | -82.54024 | 31007 ft | 538 kts | 50° |
| 2026-05-07 01:43 | 42.57922 | -82.45656 | 30981 ft | 546 kts | 50° |
| 2026-05-07 01:43 | 42.62311 | -82.37223 | 30984 ft | 552 kts | 50° |
| 2026-05-07 01:44 | 42.66788 | -82.28611 | 30989 ft | 559 kts | 50° |
| 2026-05-07 01:44 | 42.71307 | -82.20036 | 30988 ft | 557 kts | 48° |
| 2026-05-07 01:45 | 42.75886 | -82.11630 | 31018 ft | 554 kts | 49° |
| 2026-05-07 01:45 | 42.80341 | -82.03217 | 30989 ft | 550 kts | 54° |
| 2026-05-07 01:46 | 42.84138 | -81.94102 | 30987 ft | 553 kts | 57° |
| 2026-05-07 01:46 | 42.87911 | -81.84973 | 30987 ft | 553 kts | 57° |
| 2026-05-07 01:47 | 42.91679 | -81.75825 | 30986 ft | 553 kts | 57° |
| 2026-05-07 01:47 | 42.93545 | -81.71280 | 30711 ft | 546 kts | 57° |
| 2026-05-07 01:47 | 42.95380 | -81.66799 | 30254 ft | 535 kts | 58° |
| 2026-05-07 01:47 | 42.97185 | -81.62389 | 29430 ft | 528 kts | 58° |
| 2026-05-07 01:48 | 42.98962 | -81.58038 | 28581 ft | 521 kts | 58° |
| 2026-05-07 01:48 | 43.00715 | -81.53744 | 27766 ft | 514 kts | 58° |
| 2026-05-07 01:48 | 43.02441 | -81.49509 | 26963 ft | 507 kts | 58° |
| 2026-05-07 01:48 | 43.04143 | -81.45326 | 26196 ft | 500 kts | 58° |
| 2026-05-07 01:49 | 43.05819 | -81.41202 | 25442 ft | 493 kts | 58° |
| 2026-05-07 01:49 | 43.07469 | -81.37131 | 24702 ft | 486 kts | 59° |
| 2026-05-07 01:49 | 43.09069 | -81.33085 | 23982 ft | 480 kts | 59° |
| 2026-05-07 01:49 | 43.10632 | -81.29077 | 23245 ft | 474 kts | 60° |
| 2026-05-07 01:50 | 43.12169 | -81.25123 | 22472 ft | 466 kts | 60° |
| 2026-05-07 01:50 | 43.13680 | -81.21238 | 21705 ft | 459 kts | 60° |
| 2026-05-07 01:50 | 43.15173 | -81.17403 | 20926 ft | 453 kts | 60° |
| 2026-05-07 01:50 | 43.16645 | -81.13623 | 20186 ft | 447 kts | 60° |
| 2026-05-07 01:51 | 43.18078 | -81.09940 | 19470 ft | 441 kts | 60° |
| 2026-05-07 01:51 | 43.19514 | -81.06247 | 18763 ft | 436 kts | 60° |
| 2026-05-07 01:51 | 43.20925 | -81.02609 | 18044 ft | 430 kts | 61° |
| 2026-05-07 01:51 | 43.22318 | -80.99014 | 17278 ft | 424 kts | 61° |
| 2026-05-07 01:52 | 43.23689 | -80.95471 | 16555 ft | 417 kts | 61° |
| 2026-05-07 01:52 | 43.25038 | -80.91979 | 15836 ft | 412 kts | 60° |
| 2026-05-07 01:52 | 43.26368 | -80.88533 | 15181 ft | 404 kts | 60° |
| 2026-05-07 01:52 | 43.27671 | -80.85152 | 14639 ft | 400 kts | 60° |
| 2026-05-07 01:53 | 43.28963 | -80.81795 | 14208 ft | 395 kts | 60° |
| 2026-05-07 01:53 | 43.30241 | -80.78475 | 13758 ft | 391 kts | 60° |
| 2026-05-07 01:53 | 43.31504 | -80.75190 | 13285 ft | 387 kts | 60° |
| 2026-05-07 01:53 | 43.32749 | -80.71943 | 12823 ft | 382 kts | 60° |
| 2026-05-07 01:54 | 43.33979 | -80.68733 | 12363 ft | 378 kts | 60° |
| 2026-05-07 01:54 | 43.35189 | -80.65570 | 12090 ft | 371 kts | 60° |
| 2026-05-07 01:54 | 43.36395 | -80.62418 | 12016 ft | 375 kts | 60° |
| 2026-05-07 01:54 | 43.37608 | -80.59247 | 12009 ft | 375 kts | 60° |
| 2026-05-07 01:55 | 43.38818 | -80.56077 | 12007 ft | 374 kts | 60° |
| 2026-05-07 01:55 | 43.40028 | -80.52904 | 12001 ft | 374 kts | 60° |
| 2026-05-07 01:55 | 43.41233 | -80.49741 | 12007 ft | 373 kts | 60° |
| 2026-05-07 01:55 | 43.42438 | -80.46573 | 12005 ft | 374 kts | 60° |
| 2026-05-07 01:56 | 43.43643 | -80.43401 | 12010 ft | 374 kts | 60° |
| 2026-05-07 01:56 | 43.44830 | -80.40272 | 12007 ft | 374 kts | 60° |
| 2026-05-07 01:56 | 43.45978 | -80.37066 | 12007 ft | 375 kts | 66° |
| 2026-05-07 01:56 | 43.46907 | -80.33713 | 12006 ft | 375 kts | 68° |
| 2026-05-07 01:57 | 43.47838 | -80.30362 | 12006 ft | 375 kts | 68° |
| 2026-05-07 01:57 | 43.48776 | -80.27008 | 12006 ft | 375 kts | 68° |
| 2026-05-07 01:57 | 43.49713 | -80.23652 | 12006 ft | 375 kts | 68° |
| 2026-05-07 01:57 | 43.50648 | -80.20300 | 12008 ft | 375 kts | 68° |
| 2026-05-07 01:58 | 43.51576 | -80.16942 | 12005 ft | 375 kts | 68° |
| 2026-05-07 01:58 | 43.52475 | -80.13598 | 11630 ft | 370 kts | 69° |
| 2026-05-07 01:58 | 43.53353 | -80.10290 | 11077 ft | 365 kts | 69° |
| 2026-05-07 01:58 | 43.54217 | -80.07027 | 10477 ft | 359 kts | 69° |
| 2026-05-07 01:59 | 43.55055 | -80.03863 | 10212 ft | 342 kts | 69° |
| 2026-05-07 01:59 | 43.55851 | -80.00862 | 10058 ft | 326 kts | 69° |
| 2026-05-07 01:59 | 43.56613 | -79.97987 | 9932 ft | 314 kts | 69° |
| 2026-05-07 01:59 | 43.57354 | -79.95196 | 9635 ft | 308 kts | 69° |
| 2026-05-07 02:00 | 43.58087 | -79.92433 | 9228 ft | 305 kts | 68° |
| 2026-05-07 02:00 | 43.58814 | -79.89692 | 8745 ft | 304 kts | 66° |
| 2026-05-07 02:00 | 43.59847 | -79.87200 | 8342 ft | 296 kts | 45° |
| 2026-05-07 02:00 | 43.61343 | -79.85408 | 8079 ft | 283 kts | 29° |
| 2026-05-07 02:01 | 43.62980 | -79.83849 | 8022 ft | 289 kts | 30° |
| 2026-05-07 02:01 | 43.64620 | -79.82258 | 8012 ft | 287 kts | 30° |
| 2026-05-07 02:01 | 43.66253 | -79.80664 | 8015 ft | 288 kts | 30° |
| 2026-05-07 02:01 | 43.67886 | -79.79070 | 8019 ft | 288 kts | 30° |
| 2026-05-07 02:02 | 43.69523 | -79.77473 | 7965 ft | 284 kts | 30° |
| 2026-05-07 02:02 | 43.71096 | -79.75932 | 7854 ft | 270 kts | 30° |
| 2026-05-07 02:02 | 43.72583 | -79.74473 | 7689 ft | 255 kts | 30° |
| 2026-05-07 02:02 | 43.74012 | -79.73076 | 7324 ft | 249 kts | 29° |
| 2026-05-07 02:03 | 43.75360 | -79.71586 | 6896 ft | 250 kts | 40° |
| 2026-05-07 02:03 | 43.76539 | -79.69857 | 6460 ft | 246 kts | 40° |
| 2026-05-07 02:03 | 43.77706 | -79.68149 | 6091 ft | 241 kts | 40° |